sensor_id;sensor_type;location;lat;lon;timestamp;pressure;altitude;pressure_sealevel;temperature;humidity
69198;BME280;56311;50.298;8.514;2023-05-12T00:00:00;97500.0;;;10.5;100.0
69198;BME280;56311;50.298;8.514;2023-05-12T00:02:00;97500.0;;;10.4;100.0
69198;BME280;56311;50.298;8.514;2023-05-12T00:04:00;97500.0;;;10.4;100.0
69198;BME280;56311;50.298;8.514;2023-05-12T00:06:01;97500.0;;;10.4;100.0
69198;BME280;56311;50.298;8.514;2023-05-12T00:08:00;97500.0;;;10.4;100.0
69198;BME280;56311;50.298;8.514;2023-05-12T00:10:00;97500.0;;;10.3;100.0
69198;BME280;56311;50.298;8.514;2023-05-12T00:12:00;97500.0;;;10.3;100.0
69198;BME280;56311;50.298;8.514;2023-05-12T00:14:00;97500.0;;;10.3;100.0
69198;BME280;56311;50.298;8.514;2023-05-12T00:16:01;97500.0;;;10.3;100.0
69198;BME280;56311;50.298;8.514;2023-05-12T00:18:00;97500.0;;;10.3;100.0
69198;BME280;56311;50.298;8.514;2023-05-12T00:20:00;97500.0;;;10.3;100.0
69198;BME280;56311;50.298;8.514;2023-05-12T00:22:00;97500.0;;;10.3;100.0
69198;BME280;56311;50.298;8.514;2023-05-12T00:24:00;97500.0;;;10.3;100.0
69198;BME280;56311;50.298;8.514;2023-05-12T00:26:00;97500.0;;;10.3;100.0
69198;BME280;56311;50.298;8.514;2023-05-12T00:28:00;97500.0;;;10.3;100.0
69198;BME280;56311;50.298;8.514;2023-05-12T00:30:00;97500.0;;;10.3;100.0
69198;BME280;56311;50.298;8.514;2023-05-12T00:32:00;97500.0;;;10.3;100.0
69198;BME280;56311;50.298;8.514;2023-05-12T00:34:00;97500.0;;;10.3;100.0
69198;BME280;56311;50.298;8.514;2023-05-12T00:36:00;97500.0;;;10.3;100.0
69198;BME280;56311;50.298;8.514;2023-05-12T00:38:00;97500.0;;;10.2;100.0
69198;BME280;56311;50.298;8.514;2023-05-12T00:40:00;97500.0;;;10.2;100.0
69198;BME280;56311;50.298;8.514;2023-05-12T00:42:00;97500.0;;;10.3;100.0
69198;BME280;56311;50.298;8.514;2023-05-12T00:44:01;97490.0;;;10.3;100.0
69198;BME280;56311;50.298;8.514;2023-05-12T00:46:01;97490.0;;;10.3;100.0
69198;BME280;56311;50.298;8.514;2023-05-12T00:48:00;97490.0;;;10.3;100.0
69198;BME280;56311;50.298;8.514;2023-05-12T00:50:01;97490.0;;;10.3;100.0
69198;BME280;56311;50.298;8.514;2023-05-12T00:52:01;97490.0;;;10.2;100.0
69198;BME280;56311;50.298;8.514;2023-05-12T00:54:01;97490.0;;;10.2;100.0
69198;BME280;56311;50.298;8.514;2023-05-12T00:56:00;97490.0;;;10.2;100.0
69198;BME280;56311;50.298;8.514;2023-05-12T00:58:01;97490.0;;;10.2;100.0
69198;BME280;56311;50.298;8.514;2023-05-12T01:00:00;97480.0;;;10.2;100.0
69198;BME280;56311;50.298;8.514;2023-05-12T01:02:00;97480.0;;;10.2;100.0
69198;BME280;56311;50.298;8.514;2023-05-12T01:04:01;97480.0;;;10.2;100.0
69198;BME280;56311;50.298;8.514;2023-05-12T01:06:07;97480.0;;;10.2;100.0
69198;BME280;56311;50.298;8.514;2023-05-12T01:08:02;97490.0;;;10.2;100.0
69198;BME280;56311;50.298;8.514;2023-05-12T01:10:00;97480.0;;;10.1;100.0
69198;BME280;56311;50.298;8.514;2023-05-12T01:12:00;97480.0;;;10.2;100.0
69198;BME280;56311;50.298;8.514;2023-05-12T01:14:00;97480.0;;;10.1;100.0
69198;BME280;56311;50.298;8.514;2023-05-12T01:16:01;97480.0;;;10.1;100.0
69198;BME280;56311;50.298;8.514;2023-05-12T01:18:01;97480.0;;;10.1;100.0
69198;BME280;56311;50.298;8.514;2023-05-12T01:20:02;97480.0;;;10.0;100.0
69198;BME280;56311;50.298;8.514;2023-05-12T01:22:01;97480.0;;;10.0;100.0
69198;BME280;56311;50.298;8.514;2023-05-12T01:24:05;97480.0;;;10.0;100.0
69198;BME280;56311;50.298;8.514;2023-05-12T01:26:02;97480.0;;;10.0;100.0
69198;BME280;56311;50.298;8.514;2023-05-12T01:28:01;97490.0;;;10.0;100.0
69198;BME280;56311;50.298;8.514;2023-05-12T01:30:02;97480.0;;;10.0;100.0
69198;BME280;56311;50.298;8.514;2023-05-12T01:32:00;97490.0;;;10.0;100.0
69198;BME280;56311;50.298;8.514;2023-05-12T01:34:00;97480.0;;;10.0;100.0
69198;BME280;56311;50.298;8.514;2023-05-12T01:36:00;97480.0;;;9.9;100.0
69198;BME280;56311;50.298;8.514;2023-05-12T01:38:00;97480.0;;;9.8;100.0
69198;BME280;56311;50.298;8.514;2023-05-12T01:40:00;97480.0;;;9.8;100.0
69198;BME280;56311;50.298;8.514;2023-05-12T01:42:00;97480.0;;;9.8;100.0
69198;BME280;56311;50.298;8.514;2023-05-12T01:44:00;97480.0;;;9.9;100.0
69198;BME280;56311;50.298;8.514;2023-05-12T01:46:00;97480.0;;;9.8;100.0
69198;BME280;56311;50.298;8.514;2023-05-12T01:48:00;97480.0;;;9.9;100.0
69198;BME280;56311;50.298;8.514;2023-05-12T01:50:00;97480.0;;;9.8;100.0
69198;BME280;56311;50.298;8.514;2023-05-12T01:52:00;97480.0;;;9.8;100.0
69198;BME280;56311;50.298;8.514;2023-05-12T01:54:00;97480.0;;;9.8;100.0
69198;BME280;56311;50.298;8.514;2023-05-12T01:56:00;97480.0;;;9.8;100.0
69198;BME280;56311;50.298;8.514;2023-05-12T01:58:00;97490.0;;;9.8;100.0
69198;BME280;56311;50.298;8.514;2023-05-12T02:00:00;97480.0;;;9.8;100.0
69198;BME280;56311;50.298;8.514;2023-05-12T02:02:00;97490.0;;;9.8;100.0
69198;BME280;56311;50.298;8.514;2023-05-12T02:04:00;97490.0;;;9.8;100.0
69198;BME280;56311;50.298;8.514;2023-05-12T02:06:00;97490.0;;;9.8;100.0
69198;BME280;56311;50.298;8.514;2023-05-12T02:08:00;97490.0;;;9.8;100.0
69198;BME280;56311;50.298;8.514;2023-05-12T02:10:00;97490.0;;;9.8;100.0
69198;BME280;56311;50.298;8.514;2023-05-12T02:12:00;97490.0;;;9.8;100.0
69198;BME280;56311;50.298;8.514;2023-05-12T02:14:00;97490.0;;;9.7;100.0
69198;BME280;56311;50.298;8.514;2023-05-12T02:16:00;97490.0;;;9.8;100.0
69198;BME280;56311;50.298;8.514;2023-05-12T02:18:00;97490.0;;;9.7;100.0
69198;BME280;56311;50.298;8.514;2023-05-12T02:20:00;97490.0;;;9.7;100.0
69198;BME280;56311;50.298;8.514;2023-05-12T02:22:00;97490.0;;;9.7;100.0
69198;BME280;56311;50.298;8.514;2023-05-12T02:24:00;97490.0;;;9.7;100.0
69198;BME280;56311;50.298;8.514;2023-05-12T02:26:00;97490.0;;;9.7;100.0
69198;BME280;56311;50.298;8.514;2023-05-12T02:28:00;97490.0;;;9.7;100.0
69198;BME280;56311;50.298;8.514;2023-05-12T02:30:00;97500.0;;;9.7;100.0
69198;BME280;56311;50.298;8.514;2023-05-12T02:32:00;97500.0;;;9.8;100.0
69198;BME280;56311;50.298;8.514;2023-05-12T02:34:00;97490.0;;;9.8;100.0
69198;BME280;56311;50.298;8.514;2023-05-12T02:36:00;97500.0;;;9.7;100.0
69198;BME280;56311;50.298;8.514;2023-05-12T02:38:00;97490.0;;;9.8;100.0
69198;BME280;56311;50.298;8.514;2023-05-12T02:40:00;97500.0;;;9.7;100.0
69198;BME280;56311;50.298;8.514;2023-05-12T02:42:00;97510.0;;;9.7;100.0
69198;BME280;56311;50.298;8.514;2023-05-12T02:44:00;97510.0;;;9.8;100.0
69198;BME280;56311;50.298;8.514;2023-05-12T02:46:00;97520.0;;;9.8;100.0
69198;BME280;56311;50.298;8.514;2023-05-12T02:48:00;97520.0;;;9.8;100.0
69198;BME280;56311;50.298;8.514;2023-05-12T02:50:00;97520.0;;;9.7;100.0
69198;BME280;56311;50.298;8.514;2023-05-12T02:52:00;97530.0;;;9.7;100.0
69198;BME280;56311;50.298;8.514;2023-05-12T02:54:00;97530.0;;;9.7;100.0
69198;BME280;56311;50.298;8.514;2023-05-12T02:56:00;97530.0;;;9.7;100.0
69198;BME280;56311;50.298;8.514;2023-05-12T02:58:00;97540.0;;;9.7;100.0
69198;BME280;56311;50.298;8.514;2023-05-12T03:00:01;97540.0;;;9.6;100.0
69198;BME280;56311;50.298;8.514;2023-05-12T03:02:00;97540.0;;;9.5;100.0
69198;BME280;56311;50.298;8.514;2023-05-12T03:04:00;97540.0;;;9.6;100.0
69198;BME280;56311;50.298;8.514;2023-05-12T03:06:00;97550.0;;;9.6;100.0
69198;BME280;56311;50.298;8.514;2023-05-12T03:08:00;97540.0;;;9.6;100.0
69198;BME280;56311;50.298;8.514;2023-05-12T03:10:00;97550.0;;;9.6;100.0
69198;BME280;56311;50.298;8.514;2023-05-12T03:12:00;97550.0;;;9.6;100.0
69198;BME280;56311;50.298;8.514;2023-05-12T03:14:00;97550.0;;;9.6;100.0
69198;BME280;56311;50.298;8.514;2023-05-12T03:16:00;97550.0;;;9.6;100.0
69198;BME280;56311;50.298;8.514;2023-05-12T03:18:00;97550.0;;;9.6;100.0
69198;BME280;56311;50.298;8.514;2023-05-12T03:20:00;97550.0;;;9.6;100.0
69198;BME280;56311;50.298;8.514;2023-05-12T03:22:01;97550.0;;;9.6;100.0
69198;BME280;56311;50.298;8.514;2023-05-12T03:24:00;97550.0;;;9.6;100.0
69198;BME280;56311;50.298;8.514;2023-05-12T03:26:00;97550.0;;;9.6;100.0
69198;BME280;56311;50.298;8.514;2023-05-12T03:28:01;97550.0;;;9.6;100.0
69198;BME280;56311;50.298;8.514;2023-05-12T03:30:01;97550.0;;;9.6;100.0
69198;BME280;56311;50.298;8.514;2023-05-12T03:32:00;97560.0;;;9.6;100.0
69198;BME280;56311;50.298;8.514;2023-05-12T03:34:00;97550.0;;;9.6;100.0
69198;BME280;56311;50.298;8.514;2023-05-12T03:36:00;97550.0;;;9.6;100.0
69198;BME280;56311;50.298;8.514;2023-05-12T03:38:00;97550.0;;;9.6;100.0
69198;BME280;56311;50.298;8.514;2023-05-12T03:40:00;97560.0;;;9.6;100.0
69198;BME280;56311;50.298;8.514;2023-05-12T03:42:00;97560.0;;;9.6;100.0
69198;BME280;56311;50.298;8.514;2023-05-12T03:44:00;97560.0;;;9.5;100.0
69198;BME280;56311;50.298;8.514;2023-05-12T03:46:00;97560.0;;;9.5;100.0
69198;BME280;56311;50.298;8.514;2023-05-12T03:48:00;97560.0;;;9.5;100.0
69198;BME280;56311;50.298;8.514;2023-05-12T03:50:00;97560.0;;;9.6;100.0
69198;BME280;56311;50.298;8.514;2023-05-12T03:52:00;97560.0;;;9.6;100.0
69198;BME280;56311;50.298;8.514;2023-05-12T03:54:00;97560.0;;;9.6;100.0
69198;BME280;56311;50.298;8.514;2023-05-12T03:56:03;97560.0;;;9.6;100.0
69198;BME280;56311;50.298;8.514;2023-05-12T03:58:00;97560.0;;;9.6;100.0
69198;BME280;56311;50.298;8.514;2023-05-12T04:00:00;97560.0;;;9.6;100.0
69198;BME280;56311;50.298;8.514;2023-05-12T04:02:00;97560.0;;;9.6;100.0
69198;BME280;56311;50.298;8.514;2023-05-12T04:04:00;97560.0;;;9.6;100.0
69198;BME280;56311;50.298;8.514;2023-05-12T04:06:01;97560.0;;;9.6;100.0
69198;BME280;56311;50.298;8.514;2023-05-12T04:08:00;97560.0;;;9.6;100.0
69198;BME280;56311;50.298;8.514;2023-05-12T04:10:00;97560.0;;;9.7;100.0
69198;BME280;56311;50.298;8.514;2023-05-12T04:12:00;97560.0;;;9.7;100.0
69198;BME280;56311;50.298;8.514;2023-05-12T04:14:00;97560.0;;;9.7;100.0
69198;BME280;56311;50.298;8.514;2023-05-12T04:16:00;97560.0;;;9.8;100.0
69198;BME280;56311;50.298;8.514;2023-05-12T04:18:00;97570.0;;;9.8;100.0
69198;BME280;56311;50.298;8.514;2023-05-12T04:20:00;97570.0;;;9.8;100.0
69198;BME280;56311;50.298;8.514;2023-05-12T04:22:00;97570.0;;;9.8;100.0
69198;BME280;56311;50.298;8.514;2023-05-12T04:24:00;97580.0;;;9.7;100.0
69198;BME280;56311;50.298;8.514;2023-05-12T04:26:02;97570.0;;;9.7;100.0
69198;BME280;56311;50.298;8.514;2023-05-12T04:28:00;97580.0;;;9.8;100.0
69198;BME280;56311;50.298;8.514;2023-05-12T04:30:00;97580.0;;;9.7;100.0
69198;BME280;56311;50.298;8.514;2023-05-12T04:32:00;97580.0;;;9.8;100.0
69198;BME280;56311;50.298;8.514;2023-05-12T04:34:00;97580.0;;;9.7;100.0
69198;BME280;56311;50.298;8.514;2023-05-12T04:36:00;97580.0;;;9.8;100.0
69198;BME280;56311;50.298;8.514;2023-05-12T04:38:00;97580.0;;;9.8;100.0
69198;BME280;56311;50.298;8.514;2023-05-12T04:40:00;97580.0;;;9.8;100.0
69198;BME280;56311;50.298;8.514;2023-05-12T04:42:00;97580.0;;;9.8;100.0
69198;BME280;56311;50.298;8.514;2023-05-12T04:44:00;97590.0;;;9.9;100.0
69198;BME280;56311;50.298;8.514;2023-05-12T04:46:00;97590.0;;;9.9;100.0
69198;BME280;56311;50.298;8.514;2023-05-12T04:48:00;97590.0;;;9.9;100.0
69198;BME280;56311;50.298;8.514;2023-05-12T04:50:00;97590.0;;;9.9;100.0
69198;BME280;56311;50.298;8.514;2023-05-12T04:52:00;97590.0;;;9.9;100.0
69198;BME280;56311;50.298;8.514;2023-05-12T04:54:00;97590.0;;;9.9;100.0
69198;BME280;56311;50.298;8.514;2023-05-12T04:56:01;97590.0;;;9.9;100.0
69198;BME280;56311;50.298;8.514;2023-05-12T04:58:00;97590.0;;;9.9;100.0
69198;BME280;56311;50.298;8.514;2023-05-12T05:00:00;97600.0;;;9.9;100.0
69198;BME280;56311;50.298;8.514;2023-05-12T05:02:00;97610.0;;;9.9;100.0
69198;BME280;56311;50.298;8.514;2023-05-12T05:04:00;97600.0;;;9.9;100.0
69198;BME280;56311;50.298;8.514;2023-05-12T05:06:00;97610.0;;;9.9;100.0
69198;BME280;56311;50.298;8.514;2023-05-12T05:08:00;97610.0;;;9.9;100.0
69198;BME280;56311;50.298;8.514;2023-05-12T05:10:00;97600.0;;;9.8;100.0
69198;BME280;56311;50.298;8.514;2023-05-12T05:12:00;97610.0;;;9.9;100.0
69198;BME280;56311;50.298;8.514;2023-05-12T05:14:00;97610.0;;;9.8;100.0
69198;BME280;56311;50.298;8.514;2023-05-12T05:16:00;97610.0;;;9.8;100.0
69198;BME280;56311;50.298;8.514;2023-05-12T05:18:00;97620.0;;;9.8;100.0
69198;BME280;56311;50.298;8.514;2023-05-12T05:20:00;97620.0;;;9.8;100.0
69198;BME280;56311;50.298;8.514;2023-05-12T05:22:00;97620.0;;;9.9;100.0
69198;BME280;56311;50.298;8.514;2023-05-12T05:24:00;97620.0;;;9.9;100.0
69198;BME280;56311;50.298;8.514;2023-05-12T05:26:00;97620.0;;;9.9;100.0
69198;BME280;56311;50.298;8.514;2023-05-12T05:28:00;97630.0;;;9.9;100.0
69198;BME280;56311;50.298;8.514;2023-05-12T05:30:00;97630.0;;;9.9;100.0
69198;BME280;56311;50.298;8.514;2023-05-12T05:32:00;97630.0;;;9.9;100.0
69198;BME280;56311;50.298;8.514;2023-05-12T05:34:00;97630.0;;;9.9;100.0
69198;BME280;56311;50.298;8.514;2023-05-12T05:36:00;97630.0;;;9.9;100.0
69198;BME280;56311;50.298;8.514;2023-05-12T05:38:00;97630.0;;;9.9;100.0
69198;BME280;56311;50.298;8.514;2023-05-12T05:40:00;97630.0;;;9.9;100.0
69198;BME280;56311;50.298;8.514;2023-05-12T05:42:00;97630.0;;;9.8;100.0
69198;BME280;56311;50.298;8.514;2023-05-12T05:44:00;97640.0;;;9.8;100.0
69198;BME280;56311;50.298;8.514;2023-05-12T05:46:00;97640.0;;;9.8;100.0
69198;BME280;56311;50.298;8.514;2023-05-12T05:48:00;97650.0;;;9.8;100.0
69198;BME280;56311;50.298;8.514;2023-05-12T05:50:01;97650.0;;;9.8;100.0
69198;BME280;56311;50.298;8.514;2023-05-12T05:52:00;97650.0;;;9.8;100.0
69198;BME280;56311;50.298;8.514;2023-05-12T05:54:00;97650.0;;;9.8;100.0
69198;BME280;56311;50.298;8.514;2023-05-12T05:56:00;97660.0;;;9.8;100.0
69198;BME280;56311;50.298;8.514;2023-05-12T05:58:00;97660.0;;;9.8;100.0
69198;BME280;56311;50.298;8.514;2023-05-12T06:00:00;97660.0;;;9.7;100.0
69198;BME280;56311;50.298;8.514;2023-05-12T06:02:00;97660.0;;;9.8;100.0
69198;BME280;56311;50.298;8.514;2023-05-12T06:04:00;97660.0;;;9.8;100.0
69198;BME280;56311;50.298;8.514;2023-05-12T06:06:00;97660.0;;;9.7;100.0
69198;BME280;56311;50.298;8.514;2023-05-12T06:08:00;97670.0;;;9.8;100.0
69198;BME280;56311;50.298;8.514;2023-05-12T06:10:00;97670.0;;;9.9;100.0
69198;BME280;56311;50.298;8.514;2023-05-12T06:12:00;97670.0;;;9.9;100.0
69198;BME280;56311;50.298;8.514;2023-05-12T06:14:00;97670.0;;;9.9;100.0
69198;BME280;56311;50.298;8.514;2023-05-12T06:16:00;97670.0;;;9.9;100.0
69198;BME280;56311;50.298;8.514;2023-05-12T06:18:00;97670.0;;;10.0;100.0
69198;BME280;56311;50.298;8.514;2023-05-12T06:20:00;97680.0;;;10.0;100.0
69198;BME280;56311;50.298;8.514;2023-05-12T06:22:01;97680.0;;;10.0;100.0
69198;BME280;56311;50.298;8.514;2023-05-12T06:24:00;97690.0;;;10.1;100.0
69198;BME280;56311;50.298;8.514;2023-05-12T06:26:00;97690.0;;;10.1;100.0
69198;BME280;56311;50.298;8.514;2023-05-12T06:28:00;97690.0;;;10.1;100.0
69198;BME280;56311;50.298;8.514;2023-05-12T06:30:00;97690.0;;;10.2;100.0
69198;BME280;56311;50.298;8.514;2023-05-12T06:32:00;97690.0;;;10.1;100.0
69198;BME280;56311;50.298;8.514;2023-05-12T06:34:00;97700.0;;;10.1;100.0
69198;BME280;56311;50.298;8.514;2023-05-12T06:36:00;97700.0;;;10.1;100.0
69198;BME280;56311;50.298;8.514;2023-05-12T06:38:00;97700.0;;;10.3;100.0
69198;BME280;56311;50.298;8.514;2023-05-12T06:40:00;97700.0;;;10.4;100.0
69198;BME280;56311;50.298;8.514;2023-05-12T06:42:00;97700.0;;;10.6;100.0
69198;BME280;56311;50.298;8.514;2023-05-12T06:44:03;97700.0;;;10.7;100.0
69198;BME280;56311;50.298;8.514;2023-05-12T06:46:00;97700.0;;;10.5;100.0
69198;BME280;56311;50.298;8.514;2023-05-12T06:48:00;97700.0;;;10.4;100.0
69198;BME280;56311;50.298;8.514;2023-05-12T06:50:00;97700.0;;;10.4;100.0
69198;BME280;56311;50.298;8.514;2023-05-12T06:52:00;97700.0;;;10.5;100.0
69198;BME280;56311;50.298;8.514;2023-05-12T06:54:00;97700.0;;;10.4;100.0
69198;BME280;56311;50.298;8.514;2023-05-12T06:56:00;97700.0;;;10.5;100.0
69198;BME280;56311;50.298;8.514;2023-05-12T06:58:00;97700.0;;;10.6;100.0
69198;BME280;56311;50.298;8.514;2023-05-12T07:00:00;97700.0;;;10.6;100.0
69198;BME280;56311;50.298;8.514;2023-05-12T07:02:00;97700.0;;;10.7;100.0
69198;BME280;56311;50.298;8.514;2023-05-12T07:04:00;97700.0;;;10.8;100.0
69198;BME280;56311;50.298;8.514;2023-05-12T07:06:00;97700.0;;;10.8;100.0
69198;BME280;56311;50.298;8.514;2023-05-12T07:08:00;97700.0;;;10.9;100.0
69198;BME280;56311;50.298;8.514;2023-05-12T07:10:00;97700.0;;;11.0;100.0
69198;BME280;56311;50.298;8.514;2023-05-12T07:12:00;97700.0;;;11.1;100.0
69198;BME280;56311;50.298;8.514;2023-05-12T07:14:01;97700.0;;;11.1;100.0
69198;BME280;56311;50.298;8.514;2023-05-12T07:16:00;97700.0;;;11.1;100.0
69198;BME280;56311;50.298;8.514;2023-05-12T07:18:00;97700.0;;;11.2;100.0
69198;BME280;56311;50.298;8.514;2023-05-12T07:20:00;97700.0;;;11.3;100.0
69198;BME280;56311;50.298;8.514;2023-05-12T07:22:00;97710.0;;;11.2;100.0
69198;BME280;56311;50.298;8.514;2023-05-12T07:24:00;97710.0;;;11.1;100.0
69198;BME280;56311;50.298;8.514;2023-05-12T07:26:01;97710.0;;;11.0;100.0
69198;BME280;56311;50.298;8.514;2023-05-12T07:28:00;97710.0;;;11.0;100.0
69198;BME280;56311;50.298;8.514;2023-05-12T07:30:01;97710.0;;;11.0;100.0
69198;BME280;56311;50.298;8.514;2023-05-12T07:32:00;97710.0;;;11.0;100.0
69198;BME280;56311;50.298;8.514;2023-05-12T07:34:00;97710.0;;;10.9;100.0
69198;BME280;56311;50.298;8.514;2023-05-12T07:36:01;97720.0;;;10.9;100.0
69198;BME280;56311;50.298;8.514;2023-05-12T07:38:00;97720.0;;;11.0;100.0
69198;BME280;56311;50.298;8.514;2023-05-12T07:40:00;97720.0;;;11.1;100.0
69198;BME280;56311;50.298;8.514;2023-05-12T07:42:00;97720.0;;;11.2;100.0
69198;BME280;56311;50.298;8.514;2023-05-12T07:44:01;97720.0;;;11.1;100.0
69198;BME280;56311;50.298;8.514;2023-05-12T07:46:01;97720.0;;;11.2;100.0
69198;BME280;56311;50.298;8.514;2023-05-12T07:48:00;97720.0;;;11.2;100.0
69198;BME280;56311;50.298;8.514;2023-05-12T07:50:00;97720.0;;;11.1;100.0
69198;BME280;56311;50.298;8.514;2023-05-12T07:52:00;97710.0;;;11.2;100.0
69198;BME280;56311;50.298;8.514;2023-05-12T07:54:00;97720.0;;;11.2;100.0
69198;BME280;56311;50.298;8.514;2023-05-12T07:56:00;97720.0;;;11.3;100.0
69198;BME280;56311;50.298;8.514;2023-05-12T07:58:01;97720.0;;;11.2;100.0
69198;BME280;56311;50.298;8.514;2023-05-12T08:00:00;97720.0;;;11.3;100.0
69198;BME280;56311;50.298;8.514;2023-05-12T08:02:00;97720.0;;;11.4;100.0
69198;BME280;56311;50.298;8.514;2023-05-12T08:04:00;97720.0;;;11.4;100.0
69198;BME280;56311;50.298;8.514;2023-05-12T08:06:00;97720.0;;;11.6;100.0
69198;BME280;56311;50.298;8.514;2023-05-12T08:08:00;97720.0;;;11.7;100.0
69198;BME280;56311;50.298;8.514;2023-05-12T08:10:00;97720.0;;;11.8;100.0
69198;BME280;56311;50.298;8.514;2023-05-12T08:12:00;97720.0;;;12.1;100.0
69198;BME280;56311;50.298;8.514;2023-05-12T08:14:00;97720.0;;;12.0;100.0
69198;BME280;56311;50.298;8.514;2023-05-12T08:16:00;97720.0;;;12.1;100.0
69198;BME280;56311;50.298;8.514;2023-05-12T08:18:00;97720.0;;;12.1;100.0
69198;BME280;56311;50.298;8.514;2023-05-12T08:20:00;97720.0;;;12.0;100.0
69198;BME280;56311;50.298;8.514;2023-05-12T08:22:00;97710.0;;;11.8;100.0
69198;BME280;56311;50.298;8.514;2023-05-12T08:24:00;97720.0;;;11.9;100.0
69198;BME280;56311;50.298;8.514;2023-05-12T08:26:00;97720.0;;;11.9;100.0
69198;BME280;56311;50.298;8.514;2023-05-12T08:28:00;97720.0;;;11.9;100.0
69198;BME280;56311;50.298;8.514;2023-05-12T08:30:00;97720.0;;;12.0;100.0
69198;BME280;56311;50.298;8.514;2023-05-12T08:32:01;97720.0;;;12.1;100.0
69198;BME280;56311;50.298;8.514;2023-05-12T08:34:00;97720.0;;;12.4;100.0
69198;BME280;56311;50.298;8.514;2023-05-12T08:36:00;97720.0;;;12.5;100.0
69198;BME280;56311;50.298;8.514;2023-05-12T08:38:00;97730.0;;;12.6;100.0
69198;BME280;56311;50.298;8.514;2023-05-12T08:40:00;97720.0;;;12.6;100.0
69198;BME280;56311;50.298;8.514;2023-05-12T08:42:09;97730.0;;;12.6;100.0
69198;BME280;56311;50.298;8.514;2023-05-12T08:44:01;97730.0;;;12.7;100.0
69198;BME280;56311;50.298;8.514;2023-05-12T08:46:00;97730.0;;;12.8;100.0
69198;BME280;56311;50.298;8.514;2023-05-12T08:48:01;97730.0;;;12.7;100.0
69198;BME280;56311;50.298;8.514;2023-05-12T08:50:01;97730.0;;;12.7;100.0
69198;BME280;56311;50.298;8.514;2023-05-12T08:52:01;97740.0;;;12.6;100.0
69198;BME280;56311;50.298;8.514;2023-05-12T08:54:02;97730.0;;;12.6;100.0
69198;BME280;56311;50.298;8.514;2023-05-12T08:56:02;97730.0;;;12.6;100.0
69198;BME280;56311;50.298;8.514;2023-05-12T08:58:01;97730.0;;;12.7;100.0
69198;BME280;56311;50.298;8.514;2023-05-12T09:00:01;97730.0;;;12.9;100.0
69198;BME280;56311;50.298;8.514;2023-05-12T09:02:01;97730.0;;;13.0;100.0
69198;BME280;56311;50.298;8.514;2023-05-12T09:04:01;97730.0;;;13.1;100.0
69198;BME280;56311;50.298;8.514;2023-05-12T09:06:01;97730.0;;;13.2;100.0
69198;BME280;56311;50.298;8.514;2023-05-12T09:08:00;97720.0;;;13.2;100.0
69198;BME280;56311;50.298;8.514;2023-05-12T09:10:03;97730.0;;;13.0;100.0
69198;BME280;56311;50.298;8.514;2023-05-12T09:12:01;97730.0;;;13.0;100.0
69198;BME280;56311;50.298;8.514;2023-05-12T09:14:02;97720.0;;;12.9;100.0
69198;BME280;56311;50.298;8.514;2023-05-12T09:16:01;97730.0;;;12.9;100.0
69198;BME280;56311;50.298;8.514;2023-05-12T09:18:00;97730.0;;;13.0;100.0
69198;BME280;56311;50.298;8.514;2023-05-12T09:20:00;97730.0;;;13.0;100.0
69198;BME280;56311;50.298;8.514;2023-05-12T09:22:01;97730.0;;;12.9;100.0
69198;BME280;56311;50.298;8.514;2023-05-12T09:24:01;97730.0;;;13.0;100.0
69198;BME280;56311;50.298;8.514;2023-05-12T09:26:00;97730.0;;;13.1;100.0
69198;BME280;56311;50.298;8.514;2023-05-12T09:28:00;97730.0;;;13.2;100.0
69198;BME280;56311;50.298;8.514;2023-05-12T09:30:00;97720.0;;;13.2;100.0
69198;BME280;56311;50.298;8.514;2023-05-12T09:32:02;97730.0;;;13.2;100.0
69198;BME280;56311;50.298;8.514;2023-05-12T09:34:06;97730.0;;;13.3;100.0
69198;BME280;56311;50.298;8.514;2023-05-12T09:36:00;97730.0;;;13.3;100.0
69198;BME280;56311;50.298;8.514;2023-05-12T09:38:04;97730.0;;;13.3;100.0
69198;BME280;56311;50.298;8.514;2023-05-12T09:40:01;97730.0;;;13.3;100.0
69198;BME280;56311;50.298;8.514;2023-05-12T09:42:00;97730.0;;;13.4;100.0
69198;BME280;56311;50.298;8.514;2023-05-12T09:44:00;97730.0;;;13.5;100.0
69198;BME280;56311;50.298;8.514;2023-05-12T09:46:03;97720.0;;;13.6;100.0
69198;BME280;56311;50.298;8.514;2023-05-12T09:48:07;97720.0;;;13.6;100.0
69198;BME280;56311;50.298;8.514;2023-05-12T09:50:00;97720.0;;;13.6;100.0
69198;BME280;56311;50.298;8.514;2023-05-12T09:52:02;97720.0;;;13.7;100.0
69198;BME280;56311;50.298;8.514;2023-05-12T09:54:01;97720.0;;;13.8;100.0
69198;BME280;56311;50.298;8.514;2023-05-12T09:56:00;97730.0;;;14.0;100.0
69198;BME280;56311;50.298;8.514;2023-05-12T09:58:01;97730.0;;;14.1;100.0
69198;BME280;56311;50.298;8.514;2023-05-12T10:00:01;97730.0;;;14.1;100.0
69198;BME280;56311;50.298;8.514;2023-05-12T10:02:02;97730.0;;;14.0;100.0
69198;BME280;56311;50.298;8.514;2023-05-12T10:04:01;97730.0;;;13.9;100.0
69198;BME280;56311;50.298;8.514;2023-05-12T10:06:02;97730.0;;;13.9;100.0
69198;BME280;56311;50.298;8.514;2023-05-12T10:08:03;97730.0;;;14.0;100.0
69198;BME280;56311;50.298;8.514;2023-05-12T10:10:01;97740.0;;;13.9;100.0
69198;BME280;56311;50.298;8.514;2023-05-12T10:12:01;97740.0;;;13.9;100.0
69198;BME280;56311;50.298;8.514;2023-05-12T10:14:01;97740.0;;;14.0;100.0
69198;BME280;56311;50.298;8.514;2023-05-12T10:16:01;97740.0;;;13.9;100.0
69198;BME280;56311;50.298;8.514;2023-05-12T10:18:00;97740.0;;;13.8;100.0
69198;BME280;56311;50.298;8.514;2023-05-12T10:20:01;97740.0;;;13.6;100.0
69198;BME280;56311;50.298;8.514;2023-05-12T10:22:00;97740.0;;;13.6;100.0
69198;BME280;56311;50.298;8.514;2023-05-12T10:24:02;97740.0;;;13.4;100.0
69198;BME280;56311;50.298;8.514;2023-05-12T10:26:00;97730.0;;;13.3;100.0
69198;BME280;56311;50.298;8.514;2023-05-12T10:28:00;97740.0;;;13.2;100.0
69198;BME280;56311;50.298;8.514;2023-05-12T10:30:01;97740.0;;;13.2;100.0
69198;BME280;56311;50.298;8.514;2023-05-12T10:32:00;97740.0;;;13.3;100.0
69198;BME280;56311;50.298;8.514;2023-05-12T10:34:01;97740.0;;;13.3;100.0
69198;BME280;56311;50.298;8.514;2023-05-12T10:36:00;97740.0;;;13.3;100.0
69198;BME280;56311;50.298;8.514;2023-05-12T10:38:01;97730.0;;;13.3;100.0
69198;BME280;56311;50.298;8.514;2023-05-12T10:40:00;97740.0;;;13.3;100.0
69198;BME280;56311;50.298;8.514;2023-05-12T10:42:03;97740.0;;;13.4;100.0
69198;BME280;56311;50.298;8.514;2023-05-12T10:44:00;97740.0;;;13.6;100.0
69198;BME280;56311;50.298;8.514;2023-05-12T10:46:05;97730.0;;;13.8;100.0
69198;BME280;56311;50.298;8.514;2023-05-12T10:48:04;97730.0;;;13.7;100.0
69198;BME280;56311;50.298;8.514;2023-05-12T10:50:00;97740.0;;;13.7;100.0
69198;BME280;56311;50.298;8.514;2023-05-12T10:52:00;97730.0;;;13.9;100.0
69198;BME280;56311;50.298;8.514;2023-05-12T10:54:02;97730.0;;;14.0;100.0
69198;BME280;56311;50.298;8.514;2023-05-12T10:56:02;97730.0;;;14.3;100.0